»·PEaware :: N642SP KVNY-KOXR

N642SP :: KVNY-KOXR

FLIGHT INFORMATION

Flight Status: Arrived
Operator: Privately registered:
United States
More flights under this callsign
Pilot: Wes T. (5776)
Aircraft: CESSNA 172 SKYHAWK
(C172)
More flights by this aircraft type
Origin: KVNY Van Nuys
United States
Destination: KOXR Oxnard
United States
More flights between these airports :: More routes between these airports
Route: FIM
File this flight plan on PilotEdge
Remarks: TEC route BURP38; DP to DARTS
Altitude:
(Current/Filed)
6,000ft
Speed:
(Current/Filed)
115kts
Departed: 28-Apr-19 10:57 AM
Arrived: 28-Apr-19 11:27 AM
Distance/Time
Traveled:
36nm/0:30
Distance/Time
To Go:
Arrived

Flight Plot

Page will automatically refresh every two minutes.


Map Options




Map Legend


Flown Route
Filed Route
Departure Airport
Arrival Airport
Navaid (VOR, NDB)
Fix

Horizontal Profiles

Position Reports

Time Latitude Longitude Heading Altitude Ground
Speed
28-Apr-19 10:17 34.206278 -118.492192 57 805ft 0kts
28-Apr-19 10:18 34.206280 -118.492188 57 805ft 0kts
28-Apr-19 10:19 34.206282 -118.492185 57 805ft 0kts
28-Apr-19 10:20 34.206283 -118.492181 57 805ft 0kts
28-Apr-19 10:21 34.206285 -118.492178 57 805ft 0kts
28-Apr-19 10:22 34.206287 -118.492174 57 805ft 0kts
28-Apr-19 10:23 34.206289 -118.492170 57 805ft 0kts
28-Apr-19 10:23 34.206291 -118.492166 57 805ft 0kts
28-Apr-19 10:25 34.206292 -118.492165 57 805ft 0kts
28-Apr-19 10:26 34.206292 -118.492165 57 805ft 0kts
28-Apr-19 10:26 34.206292 -118.492165 57 805ft 0kts
28-Apr-19 10:27 34.206292 -118.492165 57 805ft 0kts
28-Apr-19 10:29 34.206302 -118.492147 57 805ft 0kts
28-Apr-19 10:29 34.206304 -118.492144 57 805ft 0kts
28-Apr-19 10:30 34.206305 -118.492140 57 805ft 0kts
28-Apr-19 10:31 34.206308 -118.492136 57 805ft 0kts
28-Apr-19 10:32 34.206310 -118.492132 57 805ft 0kts
28-Apr-19 10:33 34.206312 -118.492127 57 805ft 0kts
28-Apr-19 10:34 34.206314 -118.492124 57 805ft 0kts
28-Apr-19 10:35 34.206316 -118.492120 57 805ft 0kts
28-Apr-19 10:36 34.206318 -118.492116 57 805ft 0kts
28-Apr-19 10:37 34.206321 -118.492111 57 805ft 0kts
28-Apr-19 10:38 34.206323 -118.492107 57 805ft 0kts
28-Apr-19 10:39 34.206325 -118.492103 57 805ft 0kts
28-Apr-19 10:40 34.206327 -118.492100 57 805ft 0kts
28-Apr-19 10:41 34.206328 -118.492097 57 805ft 0kts
28-Apr-19 10:42 34.206330 -118.492094 57 805ft 0kts
28-Apr-19 10:43 34.206331 -118.492091 57 805ft 0kts
28-Apr-19 10:44 34.206707 -118.491287 13 805ft 8kts
28-Apr-19 10:45 34.212234 -118.491704 356 805ft 27kts
28-Apr-19 10:46 34.217675 -118.492161 355 805ft 0kts
28-Apr-19 10:47 34.218285 -118.491969 169 805ft 0kts
28-Apr-19 10:48 34.218271 -118.491966 169 805ft 0kts
28-Apr-19 10:49 34.218262 -118.491964 169 805ft 0kts
28-Apr-19 10:50 34.218254 -118.491962 169 805ft 0kts
28-Apr-19 10:51 34.218077 -118.491764 84 805ft 0kts
28-Apr-19 10:52 34.218077 -118.491763 84 805ft 0kts
28-Apr-19 10:53 34.218077 -118.491761 84 805ft 0kts
28-Apr-19 10:54 34.218077 -118.491760 84 805ft 0kts
28-Apr-19 10:55 34.217856 -118.491141 171 805ft 0kts
28-Apr-19 10:56 34.203402 -118.489154 174 1152ft 93kts
28-Apr-19 10:57 34.183414 -118.465588 122 1839ft 110kts
28-Apr-19 10:58 34.167865 -118.435802 122 2801ft 99kts
28-Apr-19 10:59 34.154185 -118.408374 111 3776ft 93kts
28-Apr-19 11:00 34.175924 -118.396088 317 4016ft 132kts
28-Apr-19 11:01 34.170833 -118.436143 243 3996ft 122kts
28-Apr-19 11:02 34.157769 -118.471738 269 4002ft 117kts
28-Apr-19 11:03 34.165861 -118.509891 284 4007ft 119kts
28-Apr-19 11:04 34.174828 -118.549220 284 4001ft 120kts
28-Apr-19 11:05 34.180098 -118.588971 276 4002ft 119kts
28-Apr-19 11:06 34.184489 -118.627960 276 3992ft 105kts
28-Apr-19 11:07 34.188410 -118.661515 276 4007ft 102kts
28-Apr-19 11:08 34.192230 -118.694490 276 4144ft 82kts
28-Apr-19 11:09 34.195800 -118.724536 276 3993ft 87kts
28-Apr-19 11:10 34.199308 -118.753978 276 4004ft 89kts
28-Apr-19 11:11 34.201001 -118.784318 266 4002ft 91kts
28-Apr-19 11:12 34.200111 -118.815358 266 4003ft 93kts
28-Apr-19 11:13 34.199701 -118.846713 269 4003ft 93kts
28-Apr-19 11:14 34.200306 -118.877942 268 4001ft 91kts
28-Apr-19 11:15 34.200513 -118.908526 267 4003ft 91kts
28-Apr-19 11:16 34.200571 -118.939358 265 4003ft 91kts
28-Apr-19 11:17 34.199937 -118.969345 268 3598ft 90kts
28-Apr-19 11:18 34.200268 -118.999952 267 3119ft 93kts
28-Apr-19 11:19 34.200560 -119.031542 267 2624ft 92kts
28-Apr-19 11:20 34.200646 -119.062057 265 2134ft 88kts
28-Apr-19 11:21 34.200440 -119.091082 269 1737ft 85kts
28-Apr-19 11:22 34.201165 -119.119302 264 1338ft 86kts
28-Apr-19 11:23 34.200281 -119.148305 268 859ft 84kts
28-Apr-19 11:24 34.200603 -119.174325 267 536ft 71kts
28-Apr-19 11:25 34.200727 -119.196571 267 160ft 60kts
28-Apr-19 11:26 34.200494 -119.207239 161 46ft 7kts
28-Apr-19 11:27 34.200253 -119.207150 160 46ft 4kts
28-Apr-19 11:28 34.199195 -119.208791 208 46ft 5kts
28-Apr-19 11:29 34.199157 -119.208734 356 46ft 0kts
28-Apr-19 11:30 34.199162 -119.208734 356 46ft 0kts
28-Apr-19 11:31 34.199162 -119.208734 356 46ft 0kts

Navigation Log

Ident Type
Flight plan parsing failed, navigation log unavailable